<?xml version="1.0" encoding="UTF-8" standalone="no" ?>
<gpx xmlns="http://www.topografix.com/GPX/1/1" xmlns:xsi="http://www.w3.org/2001/XMLSchema-instance" xsi:schemaLocation="http://www.topografix.com/GPX/1/1 http://www.topografix.com/GPX/1/1/gpx.xsd" version="1.1" creator="VisuGPX - https://www.visugpx.com">
  <metadata>
    <name>Loire sur Rhône ramml petite marche</name>
    <desc><![CDATA[reconnaissance petite marche Loire/Rh 10-12-2013]]></desc>
  </metadata>
  <wpt lat="46.27973" lon="5.67917">
    <ele>555</ele>
    <name><![CDATA[001]]></name>
    <desc><![CDATA[22-SEP-13 17:14:25]]></desc>
    <cmt><![CDATA[22-SEP-13 17:14:25]]></cmt>
  </wpt>
  <wpt lat="45.55521" lon="4.77909">
    <ele>259</ele>
    <name><![CDATA[002]]></name>
    <desc><![CDATA[08-OCT-13 9:30:42]]></desc>
    <cmt><![CDATA[08-OCT-13 9:30:42]]></cmt>
  </wpt>
  <wpt lat="45.55518" lon="4.77907">
    <ele>259</ele>
    <name><![CDATA[003]]></name>
    <desc><![CDATA[08-OCT-13 9:30:45]]></desc>
    <cmt><![CDATA[08-OCT-13 9:30:45]]></cmt>
  </wpt>
  <wpt lat="45.55514" lon="4.77904">
    <ele>259</ele>
    <name><![CDATA[004]]></name>
    <desc><![CDATA[08-OCT-13 9:30:48]]></desc>
    <cmt><![CDATA[08-OCT-13 9:30:48]]></cmt>
  </wpt>
  <wpt lat="45.55511" lon="4.77901">
    <ele>259</ele>
    <name><![CDATA[005]]></name>
    <desc><![CDATA[08-OCT-13 9:30:52]]></desc>
    <cmt><![CDATA[08-OCT-13 9:30:52]]></cmt>
  </wpt>
  <wpt lat="45.55504" lon="4.77895">
    <ele>259</ele>
    <name><![CDATA[006]]></name>
    <desc><![CDATA[08-OCT-13 9:30:58]]></desc>
    <cmt><![CDATA[08-OCT-13 9:30:58]]></cmt>
  </wpt>
  <wpt lat="45.55486" lon="4.77884">
    <ele>263</ele>
    <name><![CDATA[007]]></name>
    <desc><![CDATA[08-OCT-13 9:31:10]]></desc>
    <cmt><![CDATA[08-OCT-13 9:31:10]]></cmt>
  </wpt>
  <wpt lat="45.55485" lon="4.7788">
    <ele>263</ele>
    <name><![CDATA[008]]></name>
    <desc><![CDATA[08-OCT-13 9:31:14]]></desc>
    <cmt><![CDATA[08-OCT-13 9:31:14]]></cmt>
  </wpt>
  <wpt lat="45.55393" lon="4.75983">
    <ele>379</ele>
    <name><![CDATA[009]]></name>
    <desc><![CDATA[08-OCT-13 10:29:14]]></desc>
    <cmt><![CDATA[08-OCT-13 10:29:14]]></cmt>
  </wpt>
  <wpt lat="45.56235" lon="4.79783">
    <ele>185</ele>
    <name><![CDATA[010]]></name>
    <desc><![CDATA[08-OCT-13 11:17:23]]></desc>
    <cmt><![CDATA[08-OCT-13 11:17:23]]></cmt>
  </wpt>
  <trk>
    <name><![CDATA[ACTIVE LOG 001]]></name>
    <trkseg>
      <trkpt lat="45.56188" lon="4.79779">
        <ele>186</ele>
        <time>2013-12-10T08:57:36Z</time>
      </trkpt>
      <trkpt lat="45.562" lon="4.79711">
        <ele>191</ele>
        <time>2013-12-10T09:00:27Z</time>
      </trkpt>
      <trkpt lat="45.56138" lon="4.79625">
        <ele>197</ele>
        <time>2013-12-10T09:01:20Z</time>
      </trkpt>
      <trkpt lat="45.5613" lon="4.79476">
        <ele>195</ele>
        <time>2013-12-10T09:02:16Z</time>
      </trkpt>
      <trkpt lat="45.56102" lon="4.79325">
        <ele>196</ele>
        <time>2013-12-10T09:03:05Z</time>
      </trkpt>
      <trkpt lat="45.56052" lon="4.7917">
        <ele>196</ele>
        <time>2013-12-10T09:04:12Z</time>
      </trkpt>
      <trkpt lat="45.56023" lon="4.78995">
        <ele>207</ele>
        <time>2013-12-10T09:05:25Z</time>
      </trkpt>
      <trkpt lat="45.55971" lon="4.78826">
        <ele>217</ele>
        <time>2013-12-10T09:06:40Z</time>
      </trkpt>
      <trkpt lat="45.55898" lon="4.78685">
        <ele>218</ele>
        <time>2013-12-10T09:07:54Z</time>
      </trkpt>
      <trkpt lat="45.55828" lon="4.78448">
        <ele>232</ele>
        <time>2013-12-10T09:10:18Z</time>
      </trkpt>
      <trkpt lat="45.55689" lon="4.78178">
        <ele>239</ele>
        <time>2013-12-10T09:12:14Z</time>
      </trkpt>
      <trkpt lat="45.55558" lon="4.77968">
        <ele>254</ele>
        <time>2013-12-10T09:14:36Z</time>
      </trkpt>
      <trkpt lat="45.55419" lon="4.77656">
        <ele>267</ele>
        <time>2013-12-10T09:18:23Z</time>
      </trkpt>
      <trkpt lat="45.55119" lon="4.77375">
        <ele>324</ele>
        <time>2013-12-10T09:25:46Z</time>
      </trkpt>
      <trkpt lat="45.55073" lon="4.77502">
        <ele>341</ele>
        <time>2013-12-10T09:27:48Z</time>
      </trkpt>
      <trkpt lat="45.54984" lon="4.77538">
        <ele>352</ele>
        <time>2013-12-10T09:29:02Z</time>
      </trkpt>
      <trkpt lat="45.54907" lon="4.77537">
        <ele>360</ele>
        <time>2013-12-10T09:32:55Z</time>
      </trkpt>
      <trkpt lat="45.54893" lon="4.77414">
        <ele>360</ele>
        <time>2013-12-10T09:34:01Z</time>
      </trkpt>
      <trkpt lat="45.54871" lon="4.77337">
        <ele>362</ele>
        <time>2013-12-10T09:35:06Z</time>
      </trkpt>
      <trkpt lat="45.54783" lon="4.77359">
        <ele>369</ele>
        <time>2013-12-10T09:36:09Z</time>
      </trkpt>
      <trkpt lat="45.54751" lon="4.77435">
        <ele>368</ele>
        <time>2013-12-10T09:37:50Z</time>
      </trkpt>
      <trkpt lat="45.54678" lon="4.77502">
        <ele>367</ele>
        <time>2013-12-10T09:38:28Z</time>
      </trkpt>
      <trkpt lat="45.54682" lon="4.77627">
        <ele>360</ele>
        <time>2013-12-10T09:39:04Z</time>
      </trkpt>
      <trkpt lat="45.54717" lon="4.77753">
        <ele>356</ele>
        <time>2013-12-10T09:39:42Z</time>
      </trkpt>
      <trkpt lat="45.54726" lon="4.77892">
        <ele>352</ele>
        <time>2013-12-10T09:40:46Z</time>
      </trkpt>
      <trkpt lat="45.54675" lon="4.77996">
        <ele>347</ele>
        <time>2013-12-10T09:41:28Z</time>
      </trkpt>
      <trkpt lat="45.5473" lon="4.78056">
        <ele>343</ele>
        <time>2013-12-10T09:42:38Z</time>
      </trkpt>
      <trkpt lat="45.54826" lon="4.78073">
        <ele>339</ele>
        <time>2013-12-10T09:43:23Z</time>
      </trkpt>
      <trkpt lat="45.54833" lon="4.78204">
        <ele>335</ele>
        <time>2013-12-10T09:44:15Z</time>
      </trkpt>
      <trkpt lat="45.54883" lon="4.78315">
        <ele>339</ele>
        <time>2013-12-10T09:45:17Z</time>
      </trkpt>
      <trkpt lat="45.54969" lon="4.78356">
        <ele>340</ele>
        <time>2013-12-10T09:46:12Z</time>
      </trkpt>
      <trkpt lat="45.55062" lon="4.78353">
        <ele>338</ele>
        <time>2013-12-10T09:47:21Z</time>
      </trkpt>
      <trkpt lat="45.55155" lon="4.78344">
        <ele>334</ele>
        <time>2013-12-10T09:48:30Z</time>
      </trkpt>
      <trkpt lat="45.55249" lon="4.78352">
        <ele>328</ele>
        <time>2013-12-10T09:49:41Z</time>
      </trkpt>
      <trkpt lat="45.55342" lon="4.78339">
        <ele>321</ele>
        <time>2013-12-10T09:50:24Z</time>
      </trkpt>
      <trkpt lat="45.55412" lon="4.78262">
        <ele>319</ele>
        <time>2013-12-10T09:51:14Z</time>
      </trkpt>
      <trkpt lat="45.55423" lon="4.78188">
        <ele>312</ele>
        <time>2013-12-10T09:53:05Z</time>
      </trkpt>
      <trkpt lat="45.55501" lon="4.78189">
        <ele>286</ele>
        <time>2013-12-10T09:55:08Z</time>
      </trkpt>
      <trkpt lat="45.55538" lon="4.78088">
        <ele>266</ele>
        <time>2013-12-10T09:57:03Z</time>
      </trkpt>
      <trkpt lat="45.55483" lon="4.77876">
        <ele>264</ele>
        <time>2013-12-10T09:58:29Z</time>
      </trkpt>
      <trkpt lat="45.55562" lon="4.77922">
        <ele>259</ele>
        <time>2013-12-10T10:00:14Z</time>
      </trkpt>
      <trkpt lat="45.55645" lon="4.78032">
        <ele>253</ele>
        <time>2013-12-10T10:01:11Z</time>
      </trkpt>
      <trkpt lat="45.55716" lon="4.78192">
        <ele>241</ele>
        <time>2013-12-10T10:02:20Z</time>
      </trkpt>
      <trkpt lat="45.55785" lon="4.78345">
        <ele>239</ele>
        <time>2013-12-10T10:03:24Z</time>
      </trkpt>
      <trkpt lat="45.55849" lon="4.78469">
        <ele>241</ele>
        <time>2013-12-10T10:04:18Z</time>
      </trkpt>
      <trkpt lat="45.55901" lon="4.7865">
        <ele>221</ele>
        <time>2013-12-10T10:05:26Z</time>
      </trkpt>
      <trkpt lat="45.55974" lon="4.78803">
        <ele>218</ele>
        <time>2013-12-10T10:06:39Z</time>
      </trkpt>
      <trkpt lat="45.5602" lon="4.7895">
        <ele>212</ele>
        <time>2013-12-10T10:07:27Z</time>
      </trkpt>
      <trkpt lat="45.56035" lon="4.79113">
        <ele>199</ele>
        <time>2013-12-10T10:08:13Z</time>
      </trkpt>
      <trkpt lat="45.56085" lon="4.79269">
        <ele>195</ele>
        <time>2013-12-10T10:09:17Z</time>
      </trkpt>
      <trkpt lat="45.56125" lon="4.79409">
        <ele>194</ele>
        <time>2013-12-10T10:10:11Z</time>
      </trkpt>
      <trkpt lat="45.56124" lon="4.79565">
        <ele>197</ele>
        <time>2013-12-10T10:11:22Z</time>
      </trkpt>
      <trkpt lat="45.56189" lon="4.79652">
        <ele>191</ele>
        <time>2013-12-10T10:12:11Z</time>
      </trkpt>
      <trkpt lat="45.56203" lon="4.79776">
        <ele>186</ele>
        <time>2013-12-10T10:12:52Z</time>
      </trkpt>
      <trkpt lat="45.56239" lon="4.7982">
        <ele>182</ele>
        <time>2013-12-10T10:14:04Z</time>
      </trkpt>
    </trkseg>
  </trk>
</gpx>